Time;durP1;ratioP1;P1;durP2;ratioP2;P2;SDS_P1;SDS_P2;PMS_P1;PMS_P2;Temp;Humidity;BMP_temperature;BMP_pressure;BME280_temperature;BME280_humidity;BME280_pressure;Samples;Min_cycle;Max_cycle;Signal;HPM_P1;HPM_P2
2022/07/05 00:02:05;;;;;;;3.97;1.10;;;22.40;55.10;;;;;;5056167;28;20026;-61
2022/07/05 00:04:30;;;;;;;1.63;0.80;;;22.30;54.50;;;;;;5040731;28;20033;-61
2022/07/05 00:09:40;;;;;;;1.48;0.88;;;22.20;54.00;;;;;;5045632;28;20032;-61
2022/07/05 00:12:06;;;;;;;2.22;1.13;;;22.10;53.60;;;;;;5039908;28;20021;-60
2022/07/05 00:14:32;;;;;;;3.17;1.25;;;22.10;53.30;;;;;;5034481;28;20029;-61
2022/07/05 00:16:57;;;;;;;1.15;1.05;;;21.90;53.20;;;;;;5053006;28;20041;-61
2022/07/05 00:19:23;;;;;;;2.85;1.10;;;21.80;53.20;;;;;;5045785;28;20060;-61
2022/07/05 00:21:49;;;;;;;2.92;0.98;;;21.80;53.30;;;;;;5046002;28;20022;-61
2022/07/05 00:24:14;;;;;;;0.98;0.80;;;21.70;53.20;;;;;;5048028;28;20021;-60
2022/07/05 00:26:40;;;;;;;2.35;0.82;;;21.60;53.10;;;;;;5036851;28;20033;-60
2022/07/05 00:29:06;;;;;;;1.15;0.80;;;21.50;52.90;;;;;;5049670;28;20076;-60
2022/07/05 00:31:31;;;;;;;1.85;0.80;;;21.40;53.00;;;;;;5044441;28;20033;-60
2022/07/05 00:33:57;;;;;;;6.30;1.00;;;21.30;53.10;;;;;;5046944;28;20036;-60
2022/07/05 00:36:23;;;;;;;1.67;0.80;;;21.20;53.00;;;;;;5049863;28;20045;-61
2022/07/05 00:38:48;;;;;;;2.17;1.02;;;21.10;53.10;;;;;;5047092;28;20034;-61
2022/07/05 00:41:14;;;;;;;3.13;1.00;;;21.10;53.10;;;;;;5036048;28;20046;-61
2022/07/05 00:44:03;;;;;;;2.47;1.10;;;21.00;53.20;;;;;;5057325;28;20025;-60
2022/07/05 00:46:29;;;;;;;1.73;0.90;;;20.90;52.90;;;;;;5039776;28;20087;-60
2022/07/05 00:48:55;;;;;;;2.85;0.88;;;20.90;53.10;;;;;;5061245;28;20033;-60
2022/07/05 00:51:21;;;;;;;1.88;0.70;;;20.80;53.10;;;;;;5053735;28;20021;-61
2022/07/05 00:53:48;;;;;;;2.78;0.90;;;20.70;53.00;;;;;;5050235;28;20021;-60
2022/07/05 00:56:14;;;;;;;2.67;0.70;;;20.70;53.10;;;;;;5044009;28;20042;-60
2022/07/05 00:58:40;;;;;;;0.73;0.70;;;20.60;53.10;;;;;;5047211;28;20052;-60
2022/07/05 01:01:08;;;;;;;1.40;0.80;;;20.60;53.10;;;;;;5040063;28;20468;-61
2022/07/05 01:03:34;;;;;;;3.47;0.80;;;20.50;53.10;;;;;;5048177;28;20033;-61
2022/07/05 01:06:06;;;;;;;1.27;1.00;;;20.50;53.20;;;;;;5046613;28;20088;-60
2022/07/05 01:08:35;;;;;;;1.55;0.90;;;20.40;53.50;;;;;;5052565;28;20029;-60
2022/07/05 01:11:01;;;;;;;1.02;0.80;;;20.40;53.30;;;;;;5048301;28;20095;-61
2022/07/05 01:13:27;;;;;;;2.58;1.00;;;20.40;53.30;;;;;;5054865;28;20029;-60
2022/07/05 01:15:54;;;;;;;1.83;0.95;;;20.40;53.40;;;;;;5054012;28;20028;-61
2022/07/05 01:18:21;;;;;;;1.45;0.80;;;20.40;53.40;;;;;;5050924;28;20025;-60
2022/07/05 01:20:50;;;;;;;1.50;0.88;;;20.40;53.50;;;;;;5045242;28;20029;-60
2022/07/05 01:23:20;;;;;;;4.05;0.80;;;20.30;53.30;;;;;;5051015;28;20037;-60
2022/07/05 01:25:47;;;;;;;3.75;0.90;;;20.30;53.50;;;;;;5040860;28;20033;-61
2022/07/05 01:28:13;;;;;;;1.92;1.10;;;20.30;53.60;;;;;;5049209;28;20052;-60
2022/07/05 01:30:40;;;;;;;3.28;0.95;;;20.30;54.20;;;;;;5046794;28;20120;-60
2022/07/05 01:33:07;;;;;;;1.30;0.90;;;20.30;54.40;;;;;;5046620;28;20041;-60
2022/07/05 01:35:33;;;;;;;2.38;0.98;;;20.30;54.50;;;;;;5045137;28;20030;-61
2022/07/05 01:37:59;;;;;;;2.85;1.30;;;20.30;54.50;;;;;;5057496;28;20033;-61
2022/07/05 01:40:25;;;;;;;2.63;1.00;;;20.50;54.80;;;;;;5054091;28;20036;-61
2022/07/05 01:42:51;;;;;;;7.07;1.20;;;20.20;54.90;;;;;;5045881;28;20025;-61
2022/07/05 01:48:04;;;;;;;2.20;1.15;;;20.20;55.30;;;;;;5045659;28;20120;-61
2022/07/05 01:50:33;;;;;;;1.83;1.10;;;20.20;55.70;;;;;;5044578;28;20094;-61
2022/07/05 01:53:02;;;;;;;1.27;1.10;;;20.10;55.70;;;;;;5044985;28;20018;-60
2022/07/05 01:55:28;;;;;;;1.15;0.90;;;20.10;55.80;;;;;;5050181;28;20030;-61
2022/07/05 01:57:54;;;;;;;2.70;1.10;;;20.10;55.70;;;;;;5045632;28;20064;-59
2022/07/05 02:00:19;;;;;;;1.65;1.02;;;20.00;55.80;;;;;;5042089;28;20455;-60
2022/07/05 02:02:46;;;;;;;3.80;0.98;;;20.00;55.30;;;;;;5045349;28;20068;-62
2022/07/05 02:05:12;;;;;;;3.55;0.98;;;20.00;54.80;;;;;;5039055;28;20083;-61
2022/07/05 02:07:47;;;;;;;3.30;0.80;;;19.90;54.70;;;;;;5046358;28;20049;-60
2022/07/05 02:10:13;;;;;;;1.15;0.85;;;19.90;54.70;;;;;;5041383;28;20037;-60
2022/07/05 02:12:39;;;;;;;1.13;0.70;;;19.90;54.70;;;;;;5061966;28;20025;-61
2022/07/05 02:15:05;;;;;;;2.05;0.80;;;19.80;54.90;;;;;;5032368;28;20025;-60
2022/07/05 02:17:31;;;;;;;1.85;0.88;;;19.80;54.80;;;;;;5050878;28;20043;-61
2022/07/05 02:19:57;;;;;;;3.80;0.93;;;19.80;54.90;;;;;;5032808;28;20045;-61
2022/07/05 02:22:23;;;;;;;1.23;0.93;;;19.80;55.00;;;;;;5048326;28;20021;-59
2022/07/05 02:24:49;;;;;;;1.38;1.00;;;19.70;54.60;;;;;;5042183;28;20024;-61
2022/07/05 02:27:15;;;;;;;2.88;0.70;;;19.70;54.40;;;;;;5041447;28;20076;-61
2022/07/05 02:29:41;;;;;;;2.47;0.63;;;19.60;54.10;;;;;;5042668;28;20025;-60
2022/07/05 02:32:06;;;;;;;1.63;0.90;;;19.60;53.90;;;;;;5049185;28;20048;-61
2022/07/05 02:34:32;;;;;;;2.75;0.80;;;19.60;53.80;;;;;;5044638;28;20112;-61
2022/07/05 02:36:58;;;;;;;2.05;1.10;;;19.50;53.70;;;;;;5038311;28;20034;-61
2022/07/05 02:39:24;;;;;;;3.25;2.20;;;19.50;53.80;;;;;;5042883;28;20029;-60
2022/07/05 02:41:49;;;;;;;2.70;1.88;;;19.40;53.80;;;;;;5050463;28;20025;-62
2022/07/05 02:44:15;;;;;;;2.53;1.20;;;19.40;53.90;;;;;;5046929;28;20032;-60
2022/07/05 02:46:40;;;;;;;1.40;1.05;;;19.30;53.90;;;;;;5056547;28;20025;-61
2022/07/05 02:49:06;;;;;;;1.58;0.82;;;19.30;53.90;;;;;;5050346;28;20033;-61
2022/07/05 02:51:32;;;;;;;2.55;1.23;;;19.20;53.70;;;;;;5053600;28;20029;-61
2022/07/05 02:53:57;;;;;;;3.30;1.20;;;19.20;53.70;;;;;;5049255;28;20464;-61
2022/07/05 02:56:23;;;;;;;1.75;1.05;;;19.10;53.90;;;;;;5055551;28;20055;-61
2022/07/05 02:58:49;;;;;;;2.83;0.80;;;19.10;53.90;;;;;;5053394;28;20026;-62
2022/07/05 03:01:14;;;;;;;1.75;0.80;;;19.00;53.90;;;;;;5050102;28;20025;-61
2022/07/05 03:03:40;;;;;;;1.40;0.70;;;19.00;53.90;;;;;;5055319;28;20041;-61
2022/07/05 03:06:06;;;;;;;3.28;0.70;;;19.00;53.90;;;;;;5049095;28;20033;-61
2022/07/05 03:08:31;;;;;;;4.00;0.80;;;18.90;54.00;;;;;;5046691;28;20037;-62
2022/07/05 03:10:57;;;;;;;2.15;0.80;;;18.90;54.00;;;;;;5048134;28;20073;-61
2022/07/05 03:13:23;;;;;;;2.35;0.88;;;18.90;54.00;;;;;;5057525;28;20021;-62
2022/07/05 03:15:49;;;;;;;1.25;0.85;;;18.80;54.10;;;;;;5064655;28;20078;-62
2022/07/05 03:18:15;;;;;;;2.55;1.00;;;18.80;54.60;;;;;;5044183;28;20078;-60
2022/07/05 03:20:41;;;;;;;2.65;0.90;;;18.80;54.90;;;;;;5046580;28;20040;-60
2022/07/05 03:23:06;;;;;;;4.38;1.00;;;18.70;54.60;;;;;;5057986;28;20032;-62
2022/07/05 03:25:32;;;;;;;0.98;0.70;;;18.70;54.50;;;;;;5055995;28;20120;-61
2022/07/05 03:27:58;;;;;;;2.30;1.15;;;18.60;54.40;;;;;;5048947;28;20111;-62
2022/07/05 03:30:23;;;;;;;1.83;1.13;;;18.60;54.80;;;;;;5053593;28;20460;-61
2022/07/05 03:32:49;;;;;;;1.90;1.10;;;18.60;55.20;;;;;;5049510;28;20026;-61
2022/07/05 03:35:15;;;;;;;2.30;1.00;;;18.60;55.50;;;;;;5045694;28;20032;-62
2022/07/05 03:37:41;;;;;;;3.03;1.27;;;18.50;55.80;;;;;;5061383;28;20057;-60
2022/07/05 03:40:07;;;;;;;2.08;1.00;;;18.50;55.60;;;;;;5061078;28;20056;-61
2022/07/05 03:42:35;;;;;;;4.32;0.95;;;18.50;55.40;;;;;;5056693;28;20036;-61
2022/07/05 03:45:01;;;;;;;1.35;0.73;;;18.50;55.50;;;;;;5040627;28;20021;-59
2022/07/05 03:47:26;;;;;;;5.13;0.88;;;18.50;55.50;;;;;;5069969;28;20029;-60
2022/07/05 03:49:54;;;;;;;2.40;1.05;;;18.50;55.80;;;;;;5049762;28;20025;-61
2022/07/05 03:52:19;;;;;;;1.77;0.85;;;18.40;56.00;;;;;;5057354;28;20387;-61
2022/07/05 03:54:45;;;;;;;4.97;1.73;;;18.40;56.20;;;;;;5049658;28;20093;-61
2022/07/05 03:57:12;;;;;;;4.20;0.98;;;18.40;56.00;;;;;;5053840;28;20040;-62
2022/07/05 03:59:38;;;;;;;1.35;0.80;;;18.40;55.80;;;;;;5055563;28;20427;-60
2022/07/05 04:02:04;;;;;;;4.28;1.10;;;18.40;56.20;;;;;;5057208;28;20060;-62
2022/07/05 04:04:30;;;;;;;5.32;1.00;;;18.40;55.60;;;;;;5045772;28;20460;-60
2022/07/05 04:06:55;;;;;;;6.20;1.27;;;18.40;55.90;;;;;;5042685;28;20052;-61
2022/07/05 04:09:21;;;;;;;3.33;1.30;;;18.40;56.50;;;;;;5048042;28;20037;-60
2022/07/05 04:11:47;;;;;;;2.17;1.25;;;18.40;56.60;;;;;;5050982;28;20049;-60
2022/07/05 04:14:12;;;;;;;1.90;1.02;;;18.40;56.50;;;;;;5045424;28;20052;-61
2022/07/05 04:16:38;;;;;;;1.58;0.77;;;18.40;56.70;;;;;;5046521;28;20058;-62
2022/07/05 04:19:04;;;;;;;3.70;1.00;;;18.40;56.60;;;;;;5047110;28;20032;-60
2022/07/05 04:21:30;;;;;;;1.48;1.00;;;18.50;56.70;;;;;;5044154;28;20109;-60
2022/07/05 04:23:55;;;;;;;2.80;0.98;;;18.60;56.80;;;;;;5047654;28;20472;-60
2022/07/05 04:26:22;;;;;;;1.10;0.77;;;18.50;56.60;;;;;;5043926;28;20029;-60
2022/07/05 04:28:48;;;;;;;1.30;0.88;;;18.60;56.70;;;;;;5040952;28;20075;-60
2022/07/05 04:31:14;;;;;;;1.10;0.75;;;18.70;56.80;;;;;;5044025;28;20029;-61
2022/07/05 04:33:40;;;;;;;2.92;1.10;;;18.70;56.70;;;;;;5046357;28;20036;-61
2022/07/05 04:36:06;;;;;;;2.25;0.90;;;18.80;56.90;;;;;;5042637;28;20060;-60
2022/07/05 04:38:31;;;;;;;0.98;0.68;;;18.90;56.80;;;;;;5049871;28;20041;-61
2022/07/05 04:40:57;;;;;;;5.85;0.80;;;19.00;56.70;;;;;;5036806;28;20021;-62
2022/07/05 04:43:23;;;;;;;1.25;0.80;;;19.00;56.50;;;;;;5055890;28;20077;-60
2022/07/05 04:45:49;;;;;;;7.50;0.70;;;19.10;56.40;;;;;;5047666;28;20417;-59
2022/07/05 04:48:14;;;;;;;2.40;0.93;;;19.20;56.40;;;;;;5045646;28;20025;-60
2022/07/05 04:50:40;;;;;;;1.45;0.90;;;19.20;56.50;;;;;;5045172;28;20068;-61
2022/07/05 04:53:06;;;;;;;1.58;0.93;;;19.30;56.50;;;;;;5057606;28;20033;-61
2022/07/05 04:55:31;;;;;;;2.00;1.10;;;19.30;56.40;;;;;;5043143;28;20033;-60
2022/07/05 04:57:57;;;;;;;4.05;0.95;;;19.40;56.50;;;;;;5046967;28;20048;-60
2022/07/05 05:00:23;;;;;;;3.72;1.02;;;19.50;56.30;;;;;;5048151;28;20029;-61
2022/07/05 05:02:49;;;;;;;1.58;1.00;;;19.50;56.20;;;;;;5050282;28;20034;-61
2022/07/05 05:05:14;;;;;;;4.13;1.23;;;19.60;56.10;;;;;;5044410;28;20087;-60
2022/07/05 05:07:44;;;;;;;5.88;1.23;;;19.60;55.90;;;;;;5045573;28;20068;-61
2022/07/05 05:10:12;;;;;;;5.53;1.02;;;19.70;55.80;;;;;;5045970;28;20021;-60
2022/07/05 05:12:37;;;;;;;3.85;1.23;;;19.70;55.60;;;;;;5046393;28;20025;-60
2022/07/05 05:15:08;;;;;;;2.80;0.88;;;19.70;55.60;;;;;;5048755;28;20064;-61
2022/07/05 05:17:42;;;;;;;2.22;1.15;;;19.80;55.70;;;;;;5052576;28;20036;-61
2022/07/05 05:20:16;;;;;;;8.45;1.15;;;19.80;55.90;;;;;;5045761;28;20046;-60
2022/07/05 05:22:42;;;;;;;4.28;1.17;;;19.80;55.70;;;;;;5053416;28;20037;-60
2022/07/05 05:25:11;;;;;;;5.55;1.33;;;19.90;55.50;;;;;;5048977;28;20092;-60
2022/07/05 05:27:47;;;;;;;2.63;1.00;;;19.90;55.50;;;;;;5051732;28;20043;-60
2022/07/05 05:30:14;;;;;;;4.15;1.40;;;20.00;55.70;;;;;;5030757;28;20064;-61
2022/07/05 05:32:39;;;;;;;11.57;1.70;;;20.00;55.70;;;;;;5054994;28;20425;-61
2022/07/05 05:35:09;;;;;;;7.28;1.98;;;20.10;55.90;;;;;;5055007;28;20044;-60
2022/07/05 05:37:52;;;;;;;12.38;1.40;;;20.20;56.00;;;;;;5050530;28;20029;-59
2022/07/05 05:40:18;;;;;;;8.90;1.10;;;20.30;55.80;;;;;;5042360;28;20024;-59
2022/07/05 05:42:44;;;;;;;5.82;1.10;;;20.50;55.80;;;;;;5062471;28;20028;-60
2022/07/05 05:45:11;;;;;;;3.25;1.00;;;20.60;55.80;;;;;;5040348;28;20029;-59
2022/07/05 05:47:54;;;;;;;2.03;1.00;;;20.80;55.70;;;;;;5048239;28;20025;-60
2022/07/05 05:50:31;;;;;;;4.72;1.15;;;21.00;55.20;;;;;;5027517;28;20025;-60
2022/07/05 05:52:57;;;;;;;9.73;1.40;;;21.20;54.90;;;;;;5043647;28;20081;-60
2022/07/05 05:55:24;;;;;;;7.75;1.30;;;21.40;54.80;;;;;;5062670;28;20040;-61
2022/07/05 05:57:51;;;;;;;6.82;1.10;;;21.50;54.40;;;;;;5047606;28;20041;-61
2022/07/05 06:00:18;;;;;;;3.33;1.15;;;21.60;54.10;;;;;;5065923;28;20032;-62
2022/07/05 06:02:45;;;;;;;3.95;1.27;;;21.80;54.00;;;;;;5050021;28;20032;-60
2022/07/05 06:05:11;;;;;;;5.50;1.10;;;21.90;53.90;;;;;;5034285;28;20129;-62
2022/07/05 06:07:51;;;;;;;2.78;1.10;;;22.00;53.70;;;;;;5043928;28;20369;-60
2022/07/05 06:10:25;;;;;;;2.45;1.02;;;22.10;53.40;;;;;;5066137;28;20029;-60
2022/07/05 06:12:53;;;;;;;0.75;0.75;;;22.20;53.50;;;;;;5031215;28;20429;-60
2022/07/05 06:15:19;;;;;;;3.15;1.17;;;22.40;53.20;;;;;;5055370;28;20389;-59
2022/07/05 06:17:44;;;;;;;7.18;1.38;;;22.50;53.10;;;;;;5062647;28;20047;-61
2022/07/05 06:20:12;;;;;;;5.70;1.20;;;22.60;52.60;;;;;;5051242;28;20029;-60
2022/07/05 06:22:38;;;;;;;6.53;1.30;;;22.70;52.40;;;;;;5062484;28;20063;-61
2022/07/05 06:25:05;;;;;;;4.88;1.30;;;22.80;52.20;;;;;;5053919;28;20057;-60
2022/07/05 06:27:31;;;;;;;3.85;0.98;;;22.90;52.10;;;;;;5066485;28;20025;-61
2022/07/05 06:29:57;;;;;;;3.15;1.20;;;23.00;51.90;;;;;;5050039;28;20021;-61
2022/07/05 06:32:23;;;;;;;2.92;1.08;;;23.10;51.60;;;;;;5044623;28;20029;-60
2022/07/05 06:34:49;;;;;;;1.70;0.90;;;23.20;51.70;;;;;;5051509;28;20039;-60
2022/07/05 06:37:15;;;;;;;1.15;0.90;;;23.30;51.70;;;;;;5053493;28;20411;-60
2022/07/05 06:39:40;;;;;;;1.90;0.88;;;23.50;51.70;;;;;;5059450;28;20029;-60
2022/07/05 06:42:06;;;;;;;5.95;0.98;;;23.60;51.40;;;;;;5053268;28;20033;-60
2022/07/05 06:44:33;;;;;;;3.15;1.00;;;23.70;50.80;;;;;;5061805;28;20033;-60
2022/07/05 06:46:58;;;;;;;1.75;0.85;;;23.90;50.40;;;;;;5052345;28;20045;-60
2022/07/05 06:49:24;;;;;;;2.53;0.88;;;24.00;50.20;;;;;;5059489;28;20029;-60
2022/07/05 06:51:50;;;;;;;0.95;0.70;;;24.10;50.70;;;;;;5053270;28;20072;-61
2022/07/05 06:54:15;;;;;;;4.70;0.98;;;24.30;50.30;;;;;;5068773;28;20025;-62
2022/07/05 06:56:41;;;;;;;3.75;0.77;;;24.40;50.30;;;;;;5044646;28;20125;-62
2022/07/05 06:59:07;;;;;;;1.25;0.75;;;24.50;50.00;;;;;;5038225;28;20025;-60
2022/07/05 07:01:32;;;;;;;1.75;0.90;;;24.70;49.90;;;;;;5036581;28;20036;-60
2022/07/05 07:03:58;;;;;;;1.48;0.70;;;24.80;49.30;;;;;;5039631;28;20025;-61
2022/07/05 07:06:24;;;;;;;3.92;0.82;;;24.90;48.80;;;;;;5042308;28;20025;-61
2022/07/05 07:11:34;;;;;;;1.50;0.75;;;25.30;48.30;;;;;;5033450;28;20067;-62
2022/07/05 07:13:59;;;;;;;1.40;0.55;;;25.40;48.10;;;;;;5044259;28;20033;-61
2022/07/05 07:16:25;;;;;;;2.60;0.80;;;25.60;47.90;;;;;;5053365;28;20097;-61
2022/07/05 07:18:51;;;;;;;1.50;0.90;;;25.70;47.20;;;;;;5047355;28;20033;-62
2022/07/05 07:21:17;;;;;;;1.35;0.68;;;25.90;46.00;;;;;;5047634;28;20094;-61
2022/07/05 07:23:42;;;;;;;0.70;0.60;;;26.00;45.00;;;;;;5049384;28;20032;-64
2022/07/05 07:26:08;;;;;;;1.95;0.93;;;26.10;43.60;;;;;;5044151;28;20057;-61
2022/07/05 07:28:34;;;;;;;0.63;0.60;;;26.20;43.50;;;;;;5048541;28;20084;-61
2022/07/05 07:31:00;;;;;;;0.98;0.50;;;26.20;43.40;;;;;;5040221;28;20037;-61
2022/07/05 07:33:25;;;;;;;2.08;0.82;;;26.30;43.50;;;;;;5042750;28;20036;-61
2022/07/05 07:35:51;;;;;;;2.17;0.50;;;26.40;43.60;;;;;;5048778;28;20034;-61
2022/07/05 07:38:17;;;;;;;3.22;0.60;;;26.50;44.50;;;;;;5042518;28;20623;-61
2022/07/05 07:40:43;;;;;;;2.83;0.80;;;26.60;44.20;;;;;;5045416;28;20040;-60
2022/07/05 07:43:08;;;;;;;1.38;0.65;;;26.80;43.30;;;;;;5044220;28;20030;-60
2022/07/05 07:45:34;;;;;;;1.95;0.65;;;26.90;42.50;;;;;;5049416;28;20035;-60
2022/07/05 07:47:59;;;;;;;1.58;0.80;;;27.00;43.10;;;;;;5042694;28;20054;-62
2022/07/05 07:50:25;;;;;;;2.30;0.68;;;27.10;43.40;;;;;;5053234;28;20028;-62
2022/07/05 07:52:51;;;;;;;1.40;0.70;;;27.20;43.00;;;;;;5050575;28;20097;-61
2022/07/05 07:55:17;;;;;;;0.70;0.60;;;27.30;42.40;;;;;;5046691;28;20022;-61
2022/07/05 07:57:43;;;;;;;2.20;0.80;;;27.40;42.30;;;;;;5040775;28;20052;-60
2022/07/05 08:00:09;;;;;;;2.53;0.52;;;27.50;42.40;;;;;;5049240;28;20052;-60
2022/07/05 08:02:35;;;;;;;0.70;0.63;;;27.60;42.00;;;;;;5041429;28;20025;-61
2022/07/05 08:05:01;;;;;;;0.93;0.60;;;27.70;41.70;;;;;;5058355;28;20026;-61
2022/07/05 08:07:27;;;;;;;2.75;0.65;;;27.80;41.90;;;;;;5068187;28;20025;-61
2022/07/05 08:09:53;;;;;;;1.75;0.70;;;27.90;41.90;;;;;;5047340;28;20093;-61
2022/07/05 08:12:19;;;;;;;1.52;0.50;;;28.00;41.70;;;;;;5067147;28;20084;-62
2022/07/05 08:14:46;;;;;;;1.58;0.60;;;28.10;41.70;;;;;;5049878;28;20051;-61
2022/07/05 08:17:12;;;;;;;1.42;0.60;;;28.20;41.30;;;;;;5052577;28;20117;-60
2022/07/05 08:22:23;;;;;;;2.35;0.70;;;28.30;38.60;;;;;;5054294;28;20051;-61
2022/07/05 08:24:49;;;;;;;1.42;0.73;;;28.10;39.00;;;;;;4970739;28;20711;-60
2022/07/05 08:27:15;;;;;;;1.83;0.82;;;27.90;39.20;;;;;;5046259;28;20033;-61
2022/07/05 08:29:42;;;;;;;2.17;0.70;;;27.70;39.00;;;;;;5037746;28;20056;-60
2022/07/05 08:32:09;;;;;;;2.90;0.50;;;27.50;39.60;;;;;;5054066;28;20040;-61
2022/07/05 08:34:36;;;;;;;2.25;0.98;;;27.40;39.80;;;;;;5066569;28;20031;-61
2022/07/05 08:37:02;;;;;;;1.98;0.70;;;27.30;40.40;;;;;;5048768;28;20377;-60
2022/07/05 08:39:28;;;;;;;2.95;0.73;;;27.40;40.70;;;;;;5057382;28;20026;-61
2022/07/05 08:41:56;;;;;;;1.90;0.90;;;27.40;40.90;;;;;;5065515;28;20021;-61
2022/07/05 08:44:22;;;;;;;2.10;0.55;;;27.50;39.70;;;;;;5054583;28;20100;-61
2022/07/05 08:46:51;;;;;;;0.95;0.75;;;27.70;39.50;;;;;;5043665;28;20472;-60
2022/07/05 08:49:26;;;;;;;0.55;0.55;;;27.80;39.30;;;;;;5049923;28;20035;-61
2022/07/05 08:51:53;;;;;;;0.77;0.60;;;27.90;37.90;;;;;;5047222;28;20109;-61
2022/07/05 08:54:21;;;;;;;2.33;0.70;;;28.00;37.20;;;;;;5045201;28;20033;-60
2022/07/05 08:56:47;;;;;;;2.70;0.55;;;28.10;37.50;;;;;;5050559;28;20151;-61
2022/07/05 08:59:12;;;;;;;1.13;0.73;;;28.20;37.40;;;;;;5045762;28;20033;-59
2022/07/05 09:01:39;;;;;;;1.55;0.68;;;28.30;37.70;;;;;;5046275;28;20048;-60
2022/07/05 09:04:07;;;;;;;2.75;0.88;;;28.30;36.20;;;;;;5036841;28;20032;-62
2022/07/05 09:06:37;;;;;;;1.38;0.70;;;28.20;36.40;;;;;;5038568;28;20378;-60
2022/07/05 09:09:03;;;;;;;3.97;0.73;;;28.20;35.50;;;;;;5036704;28;20034;-60
2022/07/05 09:11:36;;;;;;;2.08;0.80;;;28.00;34.10;;;;;;5059241;28;20079;-61
2022/07/05 09:14:04;;;;;;;1.95;1.05;;;27.90;34.60;;;;;;5046966;28;20021;-60
2022/07/05 09:16:31;;;;;;;1.48;0.60;;;27.70;34.40;;;;;;5049348;28;20042;-61
2022/07/05 09:19:04;;;;;;;0.90;0.50;;;27.50;34.20;;;;;;5042699;28;20389;-61
2022/07/05 09:21:29;;;;;;;1.20;0.60;;;27.30;35.20;;;;;;5043415;28;20059;-61
2022/07/05 09:24:07;;;;;;;1.00;0.60;;;27.30;35.90;;;;;;5053318;28;20055;-60
2022/07/05 09:26:41;;;;;;;1.67;0.60;;;27.40;37.10;;;;;;5034828;28;20056;-60
2022/07/05 09:29:08;;;;;;;;;;;27.60;35.00;;;;;;5043529;28;20053;-60
2022/07/05 09:31:39;;;;;;;1.33;0.82;;;27.80;36.10;;;;;;5049465;28;19917;-62
2022/07/05 09:34:13;;;;;;;3.05;0.70;;;27.90;34.70;;;;;;5045682;28;20085;-62
2022/07/05 09:36:52;;;;;;;2.65;0.60;;;27.90;34.60;;;;;;5059099;28;20025;-61
2022/07/05 09:39:33;;;;;;;1.10;0.57;;;28.00;34.70;;;;;;5041158;28;20092;-60
2022/07/05 09:42:25;;;;;;;2.78;0.85;;;28.00;33.90;;;;;;5044998;28;20029;-62
2022/07/05 09:44:54;;;;;;;6.20;1.40;;;28.00;34.20;;;;;;5042673;28;20030;-61
2022/07/05 09:47:26;;;;;;;3.25;0.70;;;28.10;34.90;;;;;;5035331;28;20025;-62
2022/07/05 09:49:54;;;;;;;1.20;0.50;;;28.30;35.40;;;;;;5042121;28;20071;-61
2022/07/05 09:52:27;;;;;;;1.80;0.80;;;28.50;35.00;;;;;;5043593;28;20060;-61
2022/07/05 09:55:09;;;;;;;1.52;0.57;;;28.60;33.60;;;;;;5044884;28;20056;-61
2022/07/05 09:57:37;;;;;;;1.13;0.68;;;28.80;32.80;;;;;;5043538;28;20044;-62
2022/07/05 10:00:14;;;;;;;3.97;0.70;;;28.80;32.40;;;;;;5048701;28;20036;-61
2022/07/05 10:02:44;;;;;;;6.28;0.70;;;28.80;31.00;;;;;;5044261;28;20040;-61
2022/07/05 10:05:14;;;;;;;0.90;0.60;;;28.70;31.30;;;;;;5047619;28;20014;-61
2022/07/05 10:07:46;;;;;;;1.48;0.60;;;28.60;31.90;;;;;;5045421;28;20081;-60
2022/07/05 10:10:14;;;;;;;2.50;0.65;;;28.50;32.10;;;;;;5044720;28;20439;-61
2022/07/05 10:12:41;;;;;;;1.27;0.68;;;28.50;31.90;;;;;;5043403;28;20022;-61
2022/07/05 10:15:10;;;;;;;0.60;0.47;;;28.50;31.30;;;;;;5036542;28;20056;-60
2022/07/05 10:17:53;;;;;;;2.00;0.60;;;28.60;31.20;;;;;;5046404;28;20037;-61
2022/07/05 10:20:37;;;;;;;1.55;0.60;;;28.70;31.70;;;;;;5043188;28;20055;-61
2022/07/05 10:23:04;;;;;;;3.55;0.60;;;28.80;30.20;;;;;;5044169;28;20040;-61
2022/07/05 10:25:30;;;;;;;2.25;0.80;;;29.00;32.10;;;;;;4963450;28;20029;-62
2022/07/05 10:27:58;;;;;;;1.83;0.77;;;29.10;32.00;;;;;;5034786;28;20104;-60
2022/07/05 10:30:24;;;;;;;1.17;0.68;;;29.30;30.90;;;;;;5043058;28;20025;-61
2022/07/05 10:32:50;;;;;;;3.42;0.80;;;29.40;31.50;;;;;;5048324;28;20037;-61
2022/07/05 10:35:17;;;;;;;1.85;0.82;;;29.50;31.10;;;;;;5041916;28;20031;-61
2022/07/05 10:37:43;;;;;;;1.40;0.70;;;29.50;31.20;;;;;;5045906;28;20045;-61
2022/07/05 10:40:10;;;;;;;1.90;0.60;;;29.60;31.40;;;;;;5036806;28;20021;-61
2022/07/05 10:42:52;;;;;;;1.75;0.60;;;29.60;30.50;;;;;;5046842;28;20057;-61
2022/07/05 10:45:32;;;;;;;2.53;0.90;;;29.50;30.00;;;;;;5042465;28;20033;-61
2022/07/05 10:48:19;;;;;;;3.83;0.68;;;29.50;30.20;;;;;;5042902;28;20054;-62
2022/07/05 10:50:59;;;;;;;2.08;0.82;;;29.40;30.00;;;;;;5051291;28;20044;-62
2022/07/05 10:53:35;;;;;;;2.33;0.85;;;29.30;30.40;;;;;;5037958;28;20097;-62
2022/07/05 10:56:03;;;;;;;1.30;0.60;;;29.30;30.30;;;;;;5037972;28;20546;-61
2022/07/05 10:58:32;;;;;;;1.13;0.70;;;29.20;30.40;;;;;;5048406;28;20025;-61
2022/07/05 11:01:19;;;;;;;2.80;1.23;;;29.20;30.70;;;;;;5045272;28;20033;-60
2022/07/05 11:03:47;;;;;;;3.17;0.75;;;29.20;30.60;;;;;;5043590;28;20034;-61
2022/07/05 11:06:24;;;;;;;2.80;1.20;;;29.30;31.50;;;;;;5045296;28;20017;-60
2022/07/05 11:08:59;;;;;;;1.00;0.60;;;29.40;30.80;;;;;;5048890;28;20055;-61
2022/07/05 11:11:40;;;;;;;0.90;0.50;;;29.40;31.00;;;;;;5042517;28;20056;-60
2022/07/05 11:14:25;;;;;;;1.55;0.70;;;29.50;30.90;;;;;;5039447;28;20060;-62
2022/07/05 11:17:11;;;;;;;1.15;0.63;;;29.40;30.00;;;;;;5041270;28;20038;-60
2022/07/05 11:19:59;;;;;;;2.50;0.70;;;29.30;29.80;;;;;;5051535;28;20017;-62
2022/07/05 11:22:25;;;;;;;1.13;0.60;;;29.20;30.40;;;;;;5049724;28;20088;-61
2022/07/05 11:24:51;;;;;;;2.78;1.00;;;29.20;31.60;;;;;;5047970;28;20036;-62
2022/07/05 11:27:17;;;;;;;1.10;0.80;;;29.30;31.40;;;;;;4979159;28;23161;-61
2022/07/05 11:29:51;;;;;;;0.77;0.60;;;29.40;31.00;;;;;;5046067;28;20089;-61
2022/07/05 11:32:28;;;;;;;3.85;0.80;;;29.40;31.40;;;;;;5046698;28;20044;-60
2022/07/05 11:35:10;;;;;;;1.77;0.77;;;29.60;31.40;;;;;;5050171;28;20112;-61
2022/07/05 11:38:09;;;;;;;2.13;0.68;;;29.80;31.20;;;;;;5046874;28;20105;-62
2022/07/05 11:40:40;;;;;;;2.15;0.70;;;29.90;30.20;;;;;;5051156;28;20017;-61
2022/07/05 11:43:08;;;;;;;3.08;0.80;;;30.10;30.50;;;;;;5044493;28;20033;-61
2022/07/05 11:45:34;;;;;;;1.13;0.60;;;30.20;30.80;;;;;;5046021;28;20097;-61
2022/07/05 11:48:03;;;;;;;1.35;0.55;;;30.30;29.40;;;;;;5045151;28;20037;-61
2022/07/05 11:50:33;;;;;;;4.03;0.57;;;30.20;29.30;;;;;;5045652;28;20030;-61
2022/07/05 11:53:00;;;;;;;1.38;0.52;;;30.10;28.80;;;;;;5053434;28;20040;-61
2022/07/05 11:55:31;;;;;;;1.85;0.80;;;30.10;28.30;;;;;;5047158;28;20028;-62
2022/07/05 11:57:58;;;;;;;3.17;0.70;;;30.10;28.00;;;;;;5046318;28;20072;-61
2022/07/05 12:00:33;;;;;;;2.38;0.52;;;30.10;28.60;;;;;;5051016;28;20052;-61
2022/07/05 12:02:59;;;;;;;0.45;0.38;;;30.30;29.20;;;;;;5043896;28;20034;-62
2022/07/05 12:05:34;;;;;;;3.70;0.57;;;30.40;28.60;;;;;;5048411;28;20029;-61
2022/07/05 12:07:59;;;;;;;0.80;0.43;;;30.50;26.40;;;;;;5045421;28;20033;-61
2022/07/05 12:13:09;;;;;;;;;;;30.60;27.00;;;;;;5048688;28;20079;-61
2022/07/05 12:15:36;;;;;;;1.23;0.70;;;30.60;28.10;;;;;;5038354;28;19913;-61
2022/07/05 12:18:04;;;;;;;1.20;0.60;;;30.70;28.80;;;;;;5046139;28;20567;-60
2022/07/05 12:20:32;;;;;;;0.57;0.50;;;30.70;27.40;;;;;;5051297;28;20125;-60
2022/07/05 12:22:58;;;;;;;1.23;0.45;;;30.70;27.30;;;;;;5045153;28;20062;-62
2022/07/05 12:25:25;;;;;;;2.00;0.70;;;30.90;27.40;;;;;;5039173;28;20017;-61
2022/07/05 12:27:54;;;;;;;0.85;0.43;;;31.00;27.80;;;;;;5037330;28;20058;-60
2022/07/05 12:30:20;;;;;;;2.00;0.50;;;31.10;27.60;;;;;;5046850;28;20048;-61
2022/07/05 12:32:59;;;;;;;0.82;0.50;;;31.30;28.00;;;;;;5045607;28;20095;-60
2022/07/05 12:35:33;;;;;;;0.85;0.60;;;31.40;28.00;;;;;;5045456;28;20029;-61
2022/07/05 12:38:08;;;;;;;2.30;0.60;;;31.50;28.30;;;;;;5047958;28;20116;-60
2022/07/05 12:40:36;;;;;;;4.35;0.85;;;31.60;28.30;;;;;;5050709;28;20066;-60
2022/07/05 12:43:07;;;;;;;1.17;0.50;;;31.60;29.30;;;;;;5041293;28;20025;-60
2022/07/05 12:45:33;;;;;;;2.08;0.80;;;31.80;28.50;;;;;;5044566;28;20021;-60
2022/07/05 12:48:05;;;;;;;4.45;0.73;;;31.90;28.20;;;;;;5037823;28;20025;-60
2022/07/05 12:50:48;;;;;;;0.65;0.52;;;32.00;27.00;;;;;;5047768;28;20025;-60
2022/07/05 12:59:04;;;;;;;4.47;0.70;;;31.70;27.00;;;;;;5031507;28;20069;-61
2022/07/05 13:01:48;;;;;;;0.93;0.32;;;31.70;27.90;;;;;;5051013;28;20034;-61
2022/07/05 13:04:18;;;;;;;1.25;0.50;;;31.70;27.70;;;;;;5048625;28;20479;-60
2022/07/05 13:06:44;;;;;;;2.13;0.60;;;31.80;27.60;;;;;;5042258;28;20033;-62
2022/07/05 13:09:11;;;;;;;4.18;0.57;;;31.80;27.10;;;;;;5047513;28;20026;-62
2022/07/05 13:11:37;;;;;;;1.83;0.60;;;31.80;27.40;;;;;;5048540;28;20053;-62
2022/07/05 13:14:03;;;;;;;1.55;0.75;;;31.80;26.80;;;;;;5036395;28;20095;-60